createdAt,value
2022-11-13T00:05:02.977Z,4.60
2022-11-13T01:09:09.862Z,4.30
2022-11-13T01:21:27.434Z,4.10
2022-11-13T01:23:56.303Z,4.00
2022-11-13T01:26:28.825Z,4.00
2022-11-13T01:28:56.665Z,4.10
2022-11-13T01:31:26.737Z,4.20
2022-11-13T01:33:53.508Z,4.10
2022-11-13T01:36:26.407Z,4.00
2022-11-13T01:38:53.901Z,4.00
2022-11-13T01:41:25.393Z,4.00
2022-11-13T01:43:53.294Z,4.00
2022-11-13T01:46:28.887Z,4.00
2022-11-13T01:49:16.531Z,3.90
2022-11-13T01:52:05.962Z,3.90
2022-11-13T01:54:37.312Z,3.80
2022-11-13T01:57:05.410Z,3.70
2022-11-13T01:59:37.586Z,3.70
2022-11-13T02:04:33.087Z,3.60
2022-11-13T02:07:03.591Z,3.70
2022-11-13T02:09:36.631Z,3.70
2022-11-13T02:12:05.878Z,3.80
2022-11-13T02:14:33.388Z,3.90
2022-11-13T02:17:04.293Z,4.00
2022-11-13T02:19:43.256Z,3.80
2022-11-13T02:22:33.588Z,3.90
2022-11-13T02:27:39.902Z,3.90
2022-11-13T02:30:18.104Z,3.80
2022-11-13T02:32:52.925Z,3.80
2022-11-13T02:35:29.569Z,3.80
2022-11-13T02:38:00.265Z,3.70
2022-11-13T02:40:27.748Z,3.70
2022-11-13T02:42:54.896Z,3.70
2022-11-13T02:48:01.779Z,3.90
2022-11-13T02:50:38.888Z,3.80
2022-11-13T02:53:06.466Z,3.80
2022-11-13T02:55:33.417Z,3.80
2022-11-13T03:03:12.973Z,3.70
2022-11-13T03:06:00.426Z,3.70
2022-11-13T03:08:27.908Z,3.60
2022-11-13T03:10:55.478Z,3.70
2022-11-13T03:16:16.083Z,3.40
2022-11-13T03:18:42.949Z,3.30
2022-11-13T03:21:16.407Z,3.40
2022-11-13T03:23:54.255Z,3.40
2022-11-13T03:28:48.118Z,3.50
2022-11-13T03:33:42.236Z,3.10
2022-11-13T03:41:03.801Z,3.60
2022-11-13T03:48:31.389Z,3.40
2022-11-13T03:53:26.160Z,3.40
2022-11-13T03:55:54.306Z,3.40
2022-11-13T04:00:48.800Z,3.20
2022-11-13T04:08:35.797Z,3.00
2022-11-13T04:11:13.326Z,2.90
2022-11-13T04:13:40.479Z,2.90
2022-11-13T04:16:07.485Z,2.90
2022-11-13T04:18:44.040Z,3.00
2022-11-13T04:31:00.139Z,2.60
2022-11-13T04:38:21.250Z,2.90
2022-11-13T04:48:33.424Z,2.70
2022-11-13T04:56:00.467Z,3.00
2022-11-13T04:58:27.493Z,3.00
2022-11-13T05:10:43.638Z,2.90
2022-11-13T05:13:23.117Z,2.90
2022-11-13T05:16:12.607Z,2.80
2022-11-13T05:18:39.820Z,2.90
2022-11-13T05:21:08.440Z,2.90
2022-11-13T05:23:38.900Z,2.80
2022-11-13T05:26:08.453Z,2.70
2022-11-13T05:28:47.830Z,2.50
2022-11-13T05:31:16.228Z,2.50
2022-11-13T05:33:46.415Z,2.50
2022-11-13T05:36:15.331Z,2.50
2022-11-13T05:38:52.116Z,2.40
2022-11-13T05:41:23.299Z,2.60
2022-11-13T05:43:59.997Z,2.60
2022-11-13T05:46:35.960Z,2.70
2022-11-13T05:49:14.591Z,2.60
2022-11-13T05:54:18.015Z,2.50
2022-11-13T06:02:05.474Z,2.50
2022-11-13T06:14:30.400Z,2.30
2022-11-13T06:19:24.348Z,2.30
2022-11-13T06:21:51.111Z,2.30
2022-11-13T06:24:17.800Z,2.40
2022-11-13T06:26:44.517Z,2.40
2022-11-13T06:29:12.870Z,2.50
2022-11-13T06:36:36.563Z,2.40
2022-11-13T06:39:07.269Z,2.40
2022-11-13T06:41:40.338Z,2.40
2022-11-13T06:51:30.695Z,2.30
2022-11-13T06:53:58.158Z,2.30
2022-11-13T06:56:34.711Z,2.30
2022-11-13T07:01:50.912Z,2.30
2022-11-13T07:14:20.044Z,2.40
2022-11-13T07:24:28.611Z,2.70
2022-11-13T07:26:55.719Z,2.80
2022-11-13T07:29:22.918Z,2.90
2022-11-13T07:36:53.111Z,3.20
2022-11-13T07:41:47.841Z,3.50
2022-11-13T07:47:01.866Z,4.40
2022-11-13T07:54:22.849Z,7.40
2022-11-13T07:59:17.312Z,8.60
2022-11-13T08:04:11.167Z,9.60
2022-11-13T08:06:38.178Z,10.20
2022-11-13T08:09:11.093Z,10.60
2022-11-13T08:14:14.676Z,11.10
2022-11-13T08:16:41.445Z,11.20
2022-11-13T08:19:21.040Z,12.10
2022-11-13T08:21:48.264Z,12.90
2022-11-13T08:24:26.871Z,13.30
2022-11-13T08:26:53.589Z,13.70
2022-11-13T08:31:47.431Z,14.80
2022-11-13T08:34:14.680Z,15.10
2022-11-13T08:36:41.421Z,14.90
2022-11-13T08:39:09.848Z,15.10
2022-11-13T08:44:17.177Z,15.20
2022-11-13T08:46:43.933Z,15.20
2022-11-13T08:49:12.059Z,14.60
2022-11-13T08:51:48.470Z,14.60
2022-11-13T08:54:15.202Z,13.60
2022-11-13T08:56:57.879Z,12.10
2022-11-13T08:59:27.256Z,12.00
2022-11-13T09:01:59.392Z,12.70
2022-11-13T09:04:26.685Z,13.60
2022-11-13T09:06:53.772Z,13.60
2022-11-13T09:09:21.888Z,15.20
2022-11-13T09:11:58.347Z,15.60
2022-11-13T09:14:35.216Z,16.00
2022-11-13T09:17:15.080Z,16.30
2022-11-13T09:19:41.910Z,16.50
2022-11-13T09:24:45.349Z,17.30
2022-11-13T09:29:39.236Z,18.70
2022-11-13T09:32:06.390Z,19.70
2022-11-13T09:34:33.811Z,20.50
2022-11-13T09:37:00.765Z,21.50
2022-11-13T09:39:28.553Z,21.90
2022-11-13T09:42:13.234Z,22.50
2022-11-13T09:45:02.974Z,23.40
2022-11-13T09:48:05.408Z,24.30
2022-11-13T09:50:33.435Z,24.80
2022-11-13T09:53:00.204Z,25.50
2022-11-13T09:55:40.110Z,26.30
2022-11-13T09:58:11.406Z,26.50
2022-11-13T10:00:39.111Z,26.10
2022-11-13T10:03:59.157Z,26.30
2022-11-13T10:06:31.741Z,26.50
2022-11-13T10:09:29.279Z,27.60
2022-11-13T10:12:07.573Z,28.60
2022-11-13T10:14:46.017Z,28.90
2022-11-13T10:17:32.071Z,29.10
2022-11-13T10:20:02.400Z,29.70
2022-11-13T10:23:00.139Z,30.20
2022-11-13T10:25:31.511Z,30.10
2022-11-13T10:28:43.616Z,29.70
2022-11-13T10:31:03.733Z,30.00
2022-11-13T10:33:30.760Z,30.60
2022-11-13T10:36:16.618Z,31.00
2022-11-13T10:39:09.794Z,31.20
2022-11-13T10:41:50.164Z,31.10
2022-11-13T10:44:26.742Z,30.70
2022-11-13T10:47:10.303Z,30.20
2022-11-13T10:49:43.081Z,29.70
2022-11-13T10:52:22.864Z,29.70
2022-11-13T10:55:27.519Z,30.60
2022-11-13T10:57:59.878Z,31.30
2022-11-13T11:00:49.089Z,31.00
2022-11-13T11:03:24.480Z,31.30
2022-11-13T11:06:18.149Z,31.80
2022-11-13T11:08:45.664Z,30.90
2022-11-13T11:11:43.531Z,30.60
2022-11-13T11:14:22.574Z,31.00
2022-11-13T11:17:00.507Z,31.50
2022-11-13T11:19:31.336Z,31.40
2022-11-13T11:22:31.061Z,30.90
2022-11-13T11:25:22.186Z,30.20
2022-11-13T11:28:12.848Z,29.60
2022-11-13T11:31:08.713Z,29.60
2022-11-13T11:34:11.556Z,30.20
2022-11-13T11:36:53.439Z,30.20
2022-11-13T11:39:36.989Z,29.80
2022-11-13T11:42:28.244Z,29.50
2022-11-13T11:45:30.103Z,29.80
2022-11-13T11:47:58.847Z,27.70
2022-11-13T11:50:48.060Z,27.00
2022-11-13T11:53:48.172Z,27.60
2022-11-13T11:56:23.898Z,27.60
2022-11-13T11:59:04.522Z,28.30
2022-11-13T12:01:50.080Z,28.40
2022-11-13T12:04:28.955Z,28.90
2022-11-13T12:07:33.626Z,27.90
2022-11-13T12:10:37.816Z,28.10
2022-11-13T12:13:32.141Z,27.30
2022-11-13T12:16:05.183Z,27.60
2022-11-13T12:18:37.426Z,27.10
2022-11-13T12:21:19.371Z,26.60
2022-11-13T12:24:01.689Z,26.40
2022-11-13T12:26:42.225Z,26.20
2022-11-13T12:29:56.639Z,25.70
2022-11-13T12:33:04.153Z,24.90
2022-11-13T12:35:31.200Z,24.00
2022-11-13T12:38:32.336Z,22.20
2022-11-13T12:41:38.394Z,21.30
2022-11-13T12:44:24.575Z,21.50
2022-11-13T12:46:53.016Z,21.60
2022-11-13T12:49:23.320Z,21.40
2022-11-13T12:52:18.955Z,21.20
2022-11-13T12:55:23.909Z,20.20
2022-11-13T12:58:30.607Z,20.00
2022-11-13T13:01:12.199Z,19.60
2022-11-13T13:04:05.585Z,19.30
2022-11-13T13:06:57.033Z,18.80
2022-11-13T13:09:37.901Z,18.60
2022-11-13T13:12:39.975Z,18.40
2022-11-13T13:15:27.813Z,17.90
2022-11-13T13:18:06.410Z,17.90
2022-11-13T13:23:31.219Z,17.80
2022-11-13T13:26:18.148Z,17.90
2022-11-13T13:29:19.088Z,17.80
2022-11-13T13:35:17.511Z,17.80
2022-11-13T13:38:02.903Z,17.80
2022-11-13T13:40:58.683Z,17.90
2022-11-13T13:43:31.910Z,18.00
2022-11-13T13:46:26.913Z,18.00
2022-11-13T13:49:09.456Z,18.00
2022-11-13T13:51:51.580Z,18.10
2022-11-13T13:54:26.196Z,18.10
2022-11-13T13:56:54.493Z,18.10
2022-11-13T13:59:32.349Z,18.10
2022-11-13T14:02:01.917Z,18.00
2022-11-13T14:04:33.543Z,17.90
2022-11-13T14:07:02.139Z,17.80
2022-11-13T14:09:32.494Z,17.70
2022-11-13T14:12:09.651Z,17.60
2022-11-13T14:14:40.074Z,17.30
2022-11-13T14:17:26.459Z,17.10
2022-11-13T14:20:03.300Z,17.10
2022-11-13T14:22:42.518Z,16.60
2022-11-13T14:25:39.070Z,16.30
2022-11-13T14:28:42.978Z,15.60
2022-11-13T14:31:12.609Z,15.60
2022-11-13T14:33:45.209Z,15.40
2022-11-13T14:36:29.968Z,15.10
2022-11-13T14:39:24.504Z,15.10
2022-11-13T14:41:56.585Z,14.70
2022-11-13T14:44:52.836Z,14.50
2022-11-13T14:47:37.215Z,14.30
2022-11-13T14:53:08.048Z,14.10
2022-11-13T14:55:38.671Z,13.90
2022-11-13T14:58:14.271Z,13.80
2022-11-13T15:00:40.992Z,13.70
2022-11-13T15:03:07.784Z,13.50
2022-11-13T15:05:34.563Z,13.30
2022-11-13T15:08:12.948Z,13.10
2022-11-13T15:10:43.517Z,12.80
2022-11-13T15:13:22.265Z,12.70
2022-11-13T15:15:49.553Z,12.50
2022-11-13T15:18:19.403Z,12.40
2022-11-13T15:20:53.530Z,12.40
2022-11-13T15:23:25.390Z,12.40
2022-11-13T15:25:52.262Z,12.20
2022-11-13T15:28:37.550Z,12.20
2022-11-13T15:31:16.505Z,11.90
2022-11-13T15:33:43.316Z,11.70
2022-11-13T15:36:10.252Z,11.50
2022-11-13T15:38:49.403Z,11.40
2022-11-13T15:41:19.594Z,11.30
2022-11-13T15:43:54.324Z,11.00
2022-11-13T15:46:24.165Z,10.80
2022-11-13T15:48:55.786Z,10.70
2022-11-13T15:51:58.376Z,10.70
2022-11-13T15:54:25.132Z,10.50
2022-11-13T15:56:57.668Z,10.50
2022-11-13T16:04:56.399Z,10.20
2022-11-13T16:07:31.898Z,9.60
2022-11-13T16:10:05.700Z,9.70
2022-11-13T16:12:45.930Z,9.70
2022-11-13T16:15:15.146Z,9.70
2022-11-13T16:17:45.002Z,9.40
2022-11-13T16:20:27.257Z,9.30
2022-11-13T16:23:03.769Z,9.30
2022-11-13T16:25:30.526Z,9.10
2022-11-13T16:28:16.115Z,9.10
2022-11-13T16:30:53.075Z,9.10
2022-11-13T16:33:32.378Z,9.10
2022-11-13T16:36:15.156Z,9.00
2022-11-13T16:38:42.546Z,8.90
2022-11-13T16:41:11.543Z,8.90
2022-11-13T16:43:38.813Z,8.80
2022-11-13T16:46:34.810Z,8.60
2022-11-13T16:49:01.553Z,8.60
2022-11-13T16:51:37.741Z,8.50
2022-11-13T16:54:14.209Z,8.40
2022-11-13T16:59:10.833Z,8.10
2022-11-13T17:01:44.290Z,8.20
2022-11-13T17:04:14.801Z,8.20
2022-11-13T17:06:41.714Z,8.00
2022-11-13T17:09:09.567Z,8.00
2022-11-13T17:11:48.699Z,7.90
2022-11-13T17:14:27.721Z,7.60
2022-11-13T17:17:05.655Z,7.40
2022-11-13T17:19:32.580Z,7.40
2022-11-13T17:21:59.491Z,7.20
2022-11-13T17:24:32.223Z,7.10
2022-11-13T17:27:02.233Z,7.00
2022-11-13T17:29:29.009Z,7.10
2022-11-13T17:31:55.890Z,7.20
2022-11-13T17:34:22.651Z,7.00
2022-11-13T17:36:49.380Z,7.00
2022-11-13T17:39:16.072Z,6.90
2022-11-13T17:41:50.561Z,6.90
2022-11-13T17:44:27.018Z,6.90
2022-11-13T17:47:03.932Z,6.80
2022-11-13T17:49:40.491Z,6.90
2022-11-13T17:52:07.275Z,6.90
2022-11-13T17:57:11.427Z,7.00
2022-11-13T17:59:50.445Z,7.00
2022-11-13T18:02:35.585Z,7.00
2022-11-13T18:07:31.520Z,7.10
2022-11-13T18:10:07.863Z,7.10
2022-11-13T18:12:44.340Z,7.10
2022-11-13T18:15:11.181Z,7.00
2022-11-13T18:17:38.365Z,7.00
2022-11-13T18:20:09.839Z,7.00
2022-11-13T18:22:46.144Z,6.90
2022-11-13T18:25:22.891Z,6.90
2022-11-13T18:27:49.783Z,6.90
2022-11-13T18:30:17.442Z,6.90
2022-11-13T18:32:50.474Z,6.90
2022-11-13T18:35:17.290Z,6.90
2022-11-13T18:37:53.825Z,6.80
2022-11-13T18:40:30.198Z,6.80
2022-11-13T18:42:56.933Z,6.70
2022-11-13T18:47:51.332Z,6.80
2022-11-13T18:50:27.772Z,6.70
2022-11-13T18:53:04.014Z,6.80
2022-11-13T18:55:30.752Z,6.70
2022-11-13T19:00:24.629Z,6.70
2022-11-13T19:02:51.464Z,6.90
2022-11-13T19:05:18.229Z,6.80
2022-11-13T19:12:45.331Z,6.70
2022-11-13T19:22:55.060Z,6.50
2022-11-13T19:25:34.203Z,6.60
2022-11-13T19:28:26.836Z,6.80
2022-11-13T19:33:37.494Z,6.70
2022-11-13T19:36:13.045Z,6.70
2022-11-13T19:38:40.940Z,6.60
2022-11-13T19:41:08.425Z,6.50
2022-11-13T19:43:37.487Z,6.70
2022-11-13T19:46:32.080Z,6.60
2022-11-13T19:48:58.952Z,6.80
2022-11-13T19:51:37.672Z,6.80
2022-11-13T19:56:31.949Z,6.80
2022-11-13T19:58:58.728Z,6.60
2022-11-13T20:01:27.706Z,6.60
2022-11-13T20:04:00.108Z,6.70
2022-11-13T20:06:28.678Z,6.70
2022-11-13T20:09:03.372Z,6.70
2022-11-13T20:11:42.456Z,6.80
2022-11-13T20:14:11.801Z,6.70
2022-11-13T20:19:05.702Z,6.60
2022-11-13T20:21:32.519Z,6.70
2022-11-13T20:24:00.740Z,6.60
2022-11-13T20:26:28.201Z,6.60
2022-11-13T20:28:55.007Z,6.60
2022-11-13T20:31:31.481Z,6.70
2022-11-13T20:34:07.203Z,6.70
2022-11-13T20:39:24.520Z,6.80
2022-11-13T20:42:00.899Z,6.80
2022-11-13T20:44:27.651Z,6.70
2022-11-13T20:46:54.885Z,6.80
2022-11-13T20:49:24.860Z,6.80
2022-11-13T20:52:07.003Z,6.80
2022-11-13T20:57:01.355Z,6.80
2022-11-13T20:59:40.704Z,6.80
2022-11-13T21:02:08.696Z,6.90
2022-11-13T21:04:35.504Z,6.80
2022-11-13T21:09:35.968Z,6.90
2022-11-13T21:12:02.720Z,6.80
2022-11-13T21:14:36.244Z,6.90
2022-11-13T21:17:03.008Z,6.70
2022-11-13T21:19:29.795Z,6.80
2022-11-13T21:21:56.565Z,6.70
2022-11-13T21:24:23.392Z,6.60
2022-11-13T21:26:56.241Z,6.50
2022-11-13T21:29:35.622Z,6.50
2022-11-13T21:32:02.329Z,6.60
2022-11-13T21:34:29.026Z,6.50
2022-11-13T21:36:55.808Z,6.50
2022-11-13T21:39:31.760Z,6.50
2022-11-13T21:42:08.004Z,6.60
2022-11-13T21:44:47.249Z,6.60
2022-11-13T21:47:14.708Z,6.70
2022-11-13T21:49:41.724Z,6.60
2022-11-13T21:52:08.636Z,6.50
2022-11-13T21:57:03.482Z,6.50
2022-11-13T21:59:31.561Z,6.50
2022-11-13T22:01:59.101Z,6.50
2022-11-13T22:04:26.212Z,6.60
2022-11-13T22:06:59.115Z,6.70
2022-11-13T22:09:25.971Z,6.40
2022-11-13T22:11:53.073Z,6.40
2022-11-13T22:14:19.985Z,6.40
2022-11-13T22:16:47.300Z,6.30
2022-11-13T22:19:27.204Z,6.20
2022-11-13T22:21:56.030Z,6.30
2022-11-13T22:24:29.718Z,6.30
2022-11-13T22:27:02.307Z,6.20
2022-11-13T22:29:28.974Z,6.20
2022-11-13T22:31:55.695Z,6.10
2022-11-13T22:34:22.864Z,6.10
2022-11-13T22:37:09.853Z,6.20
2022-11-13T22:39:48.922Z,6.10
2022-11-13T22:44:55.570Z,6.10
2022-11-13T22:47:23.298Z,6.10
2022-11-13T22:52:17.261Z,6.00
2022-11-13T22:54:43.962Z,6.00
2022-11-13T22:57:22.901Z,6.00
2022-11-13T22:59:49.628Z,6.00
2022-11-13T23:02:16.612Z,5.90
2022-11-13T23:04:43.291Z,5.80
2022-11-13T23:07:20.015Z,5.70
2022-11-13T23:10:07.030Z,5.70
2022-11-13T23:15:13.755Z,5.70
2022-11-13T23:17:52.823Z,5.70
2022-11-13T23:22:46.605Z,5.70
2022-11-13T23:30:08.431Z,5.80
2022-11-13T23:32:35.276Z,5.70
2022-11-13T23:35:20.916Z,5.80
2022-11-13T23:40:28.284Z,5.70
2022-11-13T23:42:55.853Z,5.60
2022-11-13T23:45:33.870Z,5.60
2022-11-13T23:48:07.391Z,5.60
2022-11-13T23:50:34.130Z,5.60
2022-11-13T23:53:00.829Z,5.50
2022-11-13T23:55:40.782Z,5.50
2022-11-13T23:58:11.276Z,5.50
